Time;durP1;ratioP1;P1;durP2;ratioP2;P2;SDS_P1;SDS_P2;PMS_P1;PMS_P2;Temp;Humidity;BMP_temperature;BMP_pressure;BME280_temperature;BME280_humidity;BME280_pressure;Samples;Min_cycle;Max_cycle;Signal;HPM_P1;HPM_P2
2023/07/01 00:01:27;;;;;;;1.00;0.90;;;;;;;17.38;100.00;98646.86;105357;1257;63364;-48
2023/07/01 00:03:54;;;;;;;1.00;0.90;;;;;;;17.35;100.00;98646.17;105145;1254;60337;-50
2023/07/01 00:06:22;;;;;;;0.90;0.90;;;;;;;17.34;100.00;98651.77;105420;1259;74277;-48
2023/07/01 00:08:49;;;;;;;2.20;0.90;;;;;;;17.33;100.00;98658.21;105228;1256;67782;-48
2023/07/01 00:11:17;;;;;;;1.80;1.00;;;;;;;17.32;100.00;98660.46;105278;1256;73192;-47
2023/07/01 00:13:45;;;;;;;1.10;1.00;;;;;;;17.32;100.00;98666.14;106036;1259;61197;-48
2023/07/01 00:16:30;;;;;;;2.90;1.00;;;;;;;17.32;100.00;98666.48;105302;1255;60487;-48
2023/07/01 00:19:00;;;;;;;1.60;1.00;;;;;;;17.31;100.00;98671.61;105431;1258;73571;-50
2023/07/01 00:21:31;;;;;;;1.10;1.00;;;;;;;17.31;100.00;98671.09;105823;1254;67831;-49
2023/07/01 00:24:01;;;;;;;2.70;1.00;;;;;;;17.30;100.00;98668.67;105156;1257;71927;-50
2023/07/01 00:29:25;;;;;;;1.10;1.00;;;;;;;17.27;100.00;98672.52;102651;1291;601848;-50
2023/07/01 00:31:55;;;;;;;4.80;1.20;;;;;;;17.23;100.00;98683.59;104462;1271;62303;-49
2023/07/01 00:34:23;;;;;;;0.90;0.80;;;;;;;17.22;100.00;98680.66;104346;1270;59529;-49
2023/07/01 00:36:52;;;;;;;2.00;0.90;;;;;;;17.19;100.00;98679.42;104560;1271;72466;-48
2023/07/01 00:39:20;;;;;;;2.30;0.90;;;;;;;17.18;100.00;98683.41;104670;1270;66858;-48
2023/07/01 00:41:54;;;;;;;1.50;1.00;;;;;;;17.15;100.00;98675.48;104332;1268;72931;-48
2023/07/01 00:44:22;;;;;;;1.00;0.90;;;;;;;17.15;100.00;98678.97;104641;1268;60912;-49
2023/07/01 00:46:54;;;;;;;1.70;0.90;;;;;;;17.13;100.00;98676.41;104757;1267;59297;-49
2023/07/01 00:49:22;;;;;;;2.50;0.90;;;;;;;17.12;100.00;98679.08;104448;1265;76007;-48
2023/07/01 00:51:49;;;;;;;2.60;0.90;;;;;;;17.11;100.00;98674.44;104973;1266;68118;-47
2023/07/01 00:54:16;;;;;;;1.40;0.80;;;;;;;17.09;100.00;98667.35;104720;1268;75422;-49
2023/07/01 00:56:50;;;;;;;1.10;1.00;;;;;;;17.07;100.00;98668.60;105726;1264;60085;-49
2023/07/01 00:59:18;;;;;;;2.40;1.10;;;;;;;17.04;100.00;98667.95;104375;1267;59843;-49
2023/07/01 01:01:49;;;;;;;2.80;1.10;;;;;;;17.00;100.00;98668.67;104480;1269;74936;-48
2023/07/01 01:04:23;;;;;;;3.40;1.00;;;;;;;16.95;100.00;98666.82;105404;1269;66346;-50
2023/07/01 01:06:54;;;;;;;1.10;1.00;;;;;;;16.89;100.00;98661.73;108333;1264;72841;-48
2023/07/01 01:09:33;;;;;;;1.20;1.00;;;;;;;16.85;100.00;98659.63;108465;1268;61666;-48
2023/07/01 01:12:01;;;;;;;1.30;1.00;;;;;;;16.80;100.00;98663.71;108407;1264;60050;-49
2023/07/01 01:14:29;;;;;;;1.00;0.90;;;;;;;16.77;100.00;98661.23;108300;1266;72050;-47
2023/07/01 01:16:56;;;;;;;2.50;1.20;;;;;;;16.75;100.00;98663.59;109170;1257;66429;-48
2023/07/01 01:19:59;;;;;;;2.20;1.10;;;;;;;16.73;100.00;98665.04;109087;1255;76918;-47
2023/07/01 01:22:38;;;;;;;1.20;1.00;;;;;;;16.72;100.00;98666.75;109052;1251;60480;-48
2023/07/01 01:25:35;;;;;;;1.30;1.10;;;;;;;16.69;100.00;98665.61;108990;1251;60190;-48
2023/07/01 01:28:05;;;;;;;1.90;1.10;;;;;;;16.63;100.00;98666.10;109154;1251;72138;-49
2023/07/01 01:30:33;;;;;;;4.80;1.10;;;;;;;16.61;100.00;98666.65;109230;1251;67482;-47
2023/07/01 01:33:02;;;;;;;4.80;1.10;;;;;;;16.58;100.00;98668.73;109099;1250;71934;-47
2023/07/01 01:35:29;;;;;;;2.00;1.10;;;;;;;16.55;100.00;98668.59;105858;1257;59682;-49
2023/07/01 01:38:22;;;;;;;3.40;1.70;;;;;;;16.54;100.00;98664.94;105902;1254;62075;-49
2023/07/01 01:41:00;;;;;;;3.00;1.40;;;;;;;16.52;100.00;98666.38;109206;1251;73718;-48
2023/07/01 01:43:34;;;;;;;3.40;1.10;;;;;;;16.49;100.00;98668.27;109087;1251;67953;-49
2023/07/01 01:46:08;;;;;;;1.70;1.20;;;;;;;16.45;100.00;98668.24;109125;1252;73170;-48
2023/07/01 01:48:37;;;;;;;3.80;0.90;;;;;;;16.40;100.00;98669.27;108247;1258;60719;-48
2023/07/01 01:51:05;;;;;;;1.00;0.90;;;;;;;16.35;100.00;98668.80;105422;1256;60591;-48
2023/07/01 01:53:41;;;;;;;4.70;1.20;;;;;;;16.31;100.00;98676.25;105389;1254;73042;-49
2023/07/01 01:56:12;;;;;;;1.30;1.10;;;;;;;16.28;100.00;98677.77;105659;1256;67430;-46
2023/07/01 01:58:39;;;;;;;2.80;1.00;;;;;;;16.26;100.00;98681.16;105237;1255;72241;-48
2023/07/01 02:01:09;;;;;;;4.00;1.00;;;;;;;16.25;100.00;98678.70;105467;1257;60454;-49
2023/07/01 02:03:41;;;;;;;2.80;0.90;;;;;;;16.26;100.00;98675.36;105372;1255;59859;-49
2023/07/01 02:06:12;;;;;;;4.20;0.90;;;;;;;16.27;100.00;98678.52;107168;1255;74326;-49
2023/07/01 02:08:40;;;;;;;5.90;1.00;;;;;;;16.29;100.00;98680.77;105348;1257;68758;-49
2023/07/01 02:11:13;;;;;;;1.80;1.10;;;;;;;16.30;100.00;98682.88;105698;1253;73214;-50
2023/07/01 02:13:41;;;;;;;2.30;1.20;;;;;;;16.30;100.00;98687.71;105546;1256;63600;-49
2023/07/01 02:16:11;;;;;;;1.90;0.80;;;;;;;16.30;100.00;98684.06;105495;1250;60922;-48
2023/07/01 02:18:39;;;;;;;3.30;0.90;;;;;;;16.31;100.00;98684.92;105644;1258;73036;-49
2023/07/01 02:21:11;;;;;;;2.40;1.10;;;;;;;16.33;100.00;98686.39;105463;1265;65943;-50
2023/07/01 02:23:39;;;;;;;4.00;1.40;;;;;;;16.33;100.00;98685.10;105361;1254;71560;-50
2023/07/01 02:26:07;;;;;;;2.80;1.20;;;;;;;16.32;100.00;98689.02;105390;1256;59798;-48
2023/07/01 02:28:39;;;;;;;1.10;1.00;;;;;;;16.31;100.00;98691.83;106684;1256;59519;-48
2023/07/01 02:31:07;;;;;;;1.60;1.00;;;;;;;16.26;100.00;98690.91;105446;1257;72042;-48
2023/07/01 02:33:35;;;;;;;3.60;0.90;;;;;;;16.25;100.00;98694.65;107001;1256;66340;-49
2023/07/01 02:36:03;;;;;;;1.00;0.90;;;;;;;16.25;100.00;98699.13;105531;1258;71670;-49
2023/07/01 02:38:33;;;;;;;1.60;0.90;;;;;;;16.27;100.00;98695.95;105478;1251;61720;-50
2023/07/01 02:41:01;;;;;;;1.10;0.90;;;;;;;16.31;100.00;98697.61;105420;1251;62118;-49
2023/07/01 02:43:29;;;;;;;2.80;0.90;;;;;;;16.34;100.00;98694.23;105442;1251;73101;-48
2023/07/01 02:45:56;;;;;;;3.10;0.80;;;;;;;16.38;100.00;98695.87;105375;1257;66299;-49
2023/07/01 02:48:27;;;;;;;2.10;1.30;;;;;;;16.42;100.00;98697.84;105346;1254;71215;-48
2023/07/01 02:50:55;;;;;;;2.40;1.20;;;;;;;16.47;100.00;98700.70;105940;1254;60410;-49
2023/07/01 02:53:23;;;;;;;0.90;0.80;;;;;;;16.51;100.00;98703.23;105370;1254;61940;-47
2023/07/01 02:55:50;;;;;;;1.40;1.30;;;;;;;16.55;100.00;98705.36;105369;1251;70792;-49
2023/07/01 02:58:19;;;;;;;1.20;0.90;;;;;;;16.61;100.00;98706.67;105598;1254;67947;-50
2023/07/01 03:00:53;;;;;;;4.20;1.00;;;;;;;16.67;100.00;98706.00;105526;1251;77190;-50
2023/07/01 03:03:23;;;;;;;2.10;1.40;;;;;;;16.72;100.00;98708.40;105647;1252;60615;-48
2023/07/01 03:05:52;;;;;;;0.90;0.90;;;;;;;16.78;100.00;98711.71;105979;1251;61653;-50
2023/07/01 03:08:22;;;;;;;1.00;0.90;;;;;;;16.82;100.00;98712.21;105677;1258;75594;-49
2023/07/01 03:10:50;;;;;;;1.00;0.90;;;;;;;16.89;100.00;98712.34;105618;1251;68793;-48
2023/07/01 03:13:17;;;;;;;0.80;0.80;;;;;;;16.93;100.00;98714.64;105767;1257;71484;-50
2023/07/01 03:16:00;;;;;;;1.40;0.90;;;;;;;17.00;100.00;98717.66;105547;1258;60937;-51
2023/07/01 03:18:31;;;;;;;6.10;0.90;;;;;;;17.06;100.00;98712.77;105677;1251;61279;-48
2023/07/01 03:21:02;;;;;;;5.10;1.30;;;;;;;17.12;100.00;98715.31;105530;1251;72555;-49
2023/07/01 03:23:30;;;;;;;3.60;1.10;;;;;;;17.17;100.00;98712.27;105456;1254;66439;-49
2023/07/01 03:26:00;;;;;;;3.10;1.10;;;;;;;17.23;100.00;98713.19;105139;1257;73202;-49
2023/07/01 03:28:32;;;;;;;2.50;0.80;;;;;;;17.27;100.00;98709.53;105568;1257;64451;-48
2023/07/01 03:31:00;;;;;;;1.80;1.00;;;;;;;17.32;100.00;98718.15;105707;1251;62525;-49
2023/07/01 03:33:28;;;;;;;2.90;0.90;;;;;;;17.35;100.00;98718.17;105338;1250;72241;-50
2023/07/01 03:35:56;;;;;;;1.70;0.80;;;;;;;17.39;100.00;98723.11;105579;1251;69873;-49
2023/07/01 03:38:29;;;;;;;1.50;1.00;;;;;;;17.44;100.00;98724.44;105632;1254;75147;-48
2023/07/01 03:40:58;;;;;;;3.30;0.80;;;;;;;17.50;100.00;98724.98;105373;1257;60481;-50
2023/07/01 03:43:27;;;;;;;1.50;0.90;;;;;;;17.56;100.00;98726.77;105443;1255;59720;-48
2023/07/01 03:45:56;;;;;;;1.00;0.90;;;;;;;17.64;100.00;98732.23;105345;1251;72798;-50
2023/07/01 03:48:24;;;;;;;1.10;0.90;;;;;;;17.72;100.00;98732.79;105275;1254;69725;-49
2023/07/01 03:50:52;;;;;;;1.00;0.70;;;;;;;17.79;100.00;98737.02;105065;1257;72718;-48
2023/07/01 03:53:23;;;;;;;0.90;0.90;;;;;;;17.85;100.00;98731.17;105279;1256;60482;-49
2023/07/01 03:55:55;;;;;;;1.50;0.90;;;;;;;17.91;100.00;98730.77;105417;1257;59822;-49
2023/07/01 03:58:24;;;;;;;1.50;0.90;;;;;;;17.98;100.00;98733.77;105303;1251;75639;-48
2023/07/01 04:01:04;;;;;;;1.60;1.10;;;;;;;18.05;100.00;98737.56;109161;1251;67827;-49
2023/07/01 04:03:33;;;;;;;1.80;0.90;;;;;;;18.12;100.00;98734.52;109198;1251;73670;-49
2023/07/01 04:06:01;;;;;;;1.90;0.90;;;;;;;18.19;100.00;98736.80;109288;1250;60681;-48
2023/07/01 04:08:28;;;;;;;1.50;0.90;;;;;;;18.24;100.00;98737.24;109175;1251;60171;-48
2023/07/01 04:10:56;;;;;;;1.50;0.90;;;;;;;18.30;100.00;98738.50;109125;1251;72109;-49
2023/07/01 04:13:27;;;;;;;1.50;1.00;;;;;;;18.35;100.00;98740.50;109109;1254;66638;-49
2023/07/01 04:15:54;;;;;;;4.30;0.90;;;;;;;18.39;100.00;98736.86;109043;1254;71507;-50
2023/07/01 04:18:22;;;;;;;6.60;1.20;;;;;;;18.43;100.00;98739.54;109132;1253;61721;-49
2023/07/01 04:20:50;;;;;;;0.90;0.80;;;;;;;18.49;100.00;98740.58;109047;1251;59342;-49
2023/07/01 04:23:19;;;;;;;2.10;0.90;;;;;;;18.56;100.00;98741.05;109052;1251;73148;-48
2023/07/01 04:25:47;;;;;;;2.20;0.80;;;;;;;18.64;100.00;98746.12;108906;1251;67567;-50
2023/07/01 04:28:14;;;;;;;1.70;0.80;;;;;;;18.72;100.00;98746.91;108983;1251;72661;-49
2023/07/01 04:30:42;;;;;;;0.80;0.80;;;;;;;18.80;100.00;98753.17;108980;1251;63652;-49
2023/07/01 04:33:12;;;;;;;0.80;0.80;;;;;;;18.88;100.00;98754.60;109140;1251;59304;-48
2023/07/01 04:35:39;;;;;;;1.10;0.90;;;;;;;18.96;100.00;98755.83;106067;1252;71819;-49
2023/07/01 04:38:07;;;;;;;4.40;0.90;;;;;;;19.02;100.00;98756.52;104819;1251;68303;-49
2023/07/01 04:40:35;;;;;;;0.90;0.80;;;;;;;19.07;100.00;98762.16;104768;1251;72693;-48
2023/07/01 04:43:04;;;;;;;0.80;0.80;;;;;;;19.13;100.00;98757.41;104636;1253;60933;-49
2023/07/01 04:45:33;;;;;;;2.40;1.00;;;;;;;19.18;100.00;98761.45;106671;1256;60546;-47
2023/07/01 04:48:01;;;;;;;1.70;0.90;;;;;;;19.23;100.00;98761.14;104949;1257;73778;-48
2023/07/01 04:50:28;;;;;;;0.70;0.70;;;;;;;19.27;100.00;98762.52;105377;1256;66605;-50
2023/07/01 04:52:55;;;;;;;0.90;0.80;;;;;;;19.33;100.00;98761.63;105027;1256;73364;-48
2023/07/01 04:55:23;;;;;;;1.00;0.80;;;;;;;19.39;100.00;98764.50;104954;1252;61873;-49
2023/07/01 04:57:51;;;;;;;0.80;0.80;;;;;;;19.46;100.00;98764.14;104565;1256;60514;-49
2023/07/01 05:00:18;;;;;;;0.70;0.70;;;;;;;19.53;100.00;98763.43;104976;1254;73849;-48
2023/07/01 05:02:46;;;;;;;2.40;0.90;;;;;;;19.60;100.00;98763.59;104537;1252;66871;-48
2023/07/01 05:05:14;;;;;;;0.80;0.80;;;;;;;19.67;100.00;98763.59;104825;1251;73119;-50
2023/07/01 05:07:41;;;;;;;1.50;0.90;;;;;;;19.74;100.00;98764.80;104619;1253;60440;-48
2023/07/01 05:10:09;;;;;;;1.20;0.80;;;;;;;19.79;100.00;98769.55;106962;1253;59492;-48
2023/07/01 05:12:36;;;;;;;3.10;0.80;;;;;;;19.84;100.00;98766.77;106180;1251;73772;-49
2023/07/01 05:15:04;;;;;;;0.70;0.70;;;;;;;19.91;100.00;98768.33;105022;1254;66461;-49
2023/07/01 05:17:34;;;;;;;1.10;1.10;;;;;;;19.97;100.00;98769.42;106305;1251;73741;-50
2023/07/01 05:20:01;;;;;;;0.90;0.90;;;;;;;20.06;100.00;98768.73;104946;1256;64913;-49
2023/07/01 05:22:29;;;;;;;0.70;0.70;;;;;;;20.16;100.00;98767.16;105112;1251;60469;-48
2023/07/01 05:24:56;;;;;;;2.40;0.80;;;;;;;20.26;100.00;98768.98;105062;1251;72543;-49
2023/07/01 05:27:24;;;;;;;2.10;0.80;;;;;;;20.35;100.00;98774.44;104989;1256;68017;-49
2023/07/01 05:29:51;;;;;;;14.00;0.90;;;;;;;20.45;100.00;98773.48;105062;1254;73123;-48
2023/07/01 05:32:18;;;;;;;1.10;0.80;;;;;;;20.53;100.00;98774.67;104964;1253;60552;-49
2023/07/01 05:34:45;;;;;;;1.80;0.90;;;;;;;20.60;100.00;98774.22;105165;1256;60473;-49
2023/07/01 05:37:13;;;;;;;1.70;0.80;;;;;;;20.66;100.00;98773.71;105094;1251;76547;-48
2023/07/01 05:39:40;;;;;;;1.90;0.80;;;;;;;20.72;100.00;98773.48;105035;1257;66633;-48
2023/07/01 05:42:08;;;;;;;2.20;0.90;;;;;;;20.78;100.00;98773.55;105198;1256;72443;-48
2023/07/01 05:44:35;;;;;;;0.70;0.70;;;;;;;20.84;100.00;98774.77;105194;1251;61735;-48
2023/07/01 05:47:03;;;;;;;1.40;0.80;;;;;;;20.92;100.00;98775.40;105309;1256;60538;-48
2023/07/01 05:49:31;;;;;;;1.70;0.90;;;;;;;20.99;100.00;98781.05;105370;1253;73778;-49
2023/07/01 05:51:58;;;;;;;3.30;0.80;;;;;;;21.06;100.00;98780.80;105132;1253;66472;-47
2023/07/01 05:54:25;;;;;;;1.50;0.80;;;;;;;21.12;100.00;98777.73;105113;1251;72687;-49
2023/07/01 05:56:53;;;;;;;2.10;0.90;;;;;;;21.18;100.00;98779.00;105139;1255;60582;-49
2023/07/01 05:59:20;;;;;;;4.20;0.90;;;;;;;21.24;100.00;98781.09;105066;1253;62177;-49
2023/07/01 06:01:48;;;;;;;0.90;0.80;;;;;;;21.29;100.00;98785.34;104936;1251;72535;-49
2023/07/01 06:04:16;;;;;;;0.80;0.80;;;;;;;21.33;100.00;98787.40;105071;1254;66453;-48
2023/07/01 06:06:43;;;;;;;2.30;0.70;;;;;;;21.38;100.00;98786.11;105136;1256;72668;-49
2023/07/01 06:09:14;;;;;;;1.10;0.70;;;;;;;21.43;100.00;98790.71;105113;1251;61230;-48
2023/07/01 06:11:41;;;;;;;2.30;0.80;;;;;;;21.50;100.00;98789.23;105577;1251;60530;-49
2023/07/01 06:14:09;;;;;;;2.40;0.70;;;;;;;21.60;100.00;98791.07;105058;1257;73901;-48
2023/07/01 06:16:37;;;;;;;1.00;0.80;;;;;;;21.69;100.00;98795.14;105071;1251;68188;-48
2023/07/01 06:19:05;;;;;;;1.60;0.80;;;;;;;21.77;100.00;98795.36;105383;1256;72626;-49
2023/07/01 06:21:32;;;;;;;2.60;0.70;;;;;;;21.84;100.00;98799.68;105138;1253;60396;-48
2023/07/01 06:23:59;;;;;;;1.00;0.80;;;;;;;21.91;100.00;98796.35;105002;1257;61132;-48
2023/07/01 06:26:27;;;;;;;0.90;0.80;;;;;;;21.98;100.00;98801.13;105097;1256;76001;-47
2023/07/01 06:28:54;;;;;;;1.10;0.80;;;;;;;22.03;100.00;98799.81;105124;1251;68442;-50
2023/07/01 06:31:22;;;;;;;1.30;0.80;;;;;;;22.08;100.00;98800.86;105055;1254;71466;-48
2023/07/01 06:33:49;;;;;;;0.90;0.70;;;;;;;22.14;100.00;98799.48;105195;1256;60441;-49
2023/07/01 06:36:18;;;;;;;1.10;0.70;;;;;;;22.20;100.00;98796.65;105092;1251;60509;-49
2023/07/01 06:38:48;;;;;;;1.70;1.00;;;;;;;22.25;100.00;98800.63;105124;1251;73892;-49
2023/07/01 06:41:15;;;;;;;0.70;0.60;;;;;;;22.32;100.00;98799.91;105083;1253;68020;-47
2023/07/01 06:43:42;;;;;;;0.70;0.70;;;;;;;22.40;100.00;98796.55;105188;1251;72675;-48
2023/07/01 06:46:12;;;;;;;0.70;0.60;;;;;;;22.48;100.00;98798.23;105879;1252;60485;-49
2023/07/01 06:48:42;;;;;;;0.90;0.60;;;;;;;22.57;100.00;98802.50;105159;1256;61878;-49
2023/07/01 06:51:10;;;;;;;2.50;0.60;;;;;;;22.66;100.00;98802.00;105286;1257;73814;-49
2023/07/01 06:53:39;;;;;;;0.80;0.60;;;;;;;22.75;100.00;98801.61;105078;1253;69517;-48
2023/07/01 06:56:09;;;;;;;0.90;0.60;;;;;;;22.84;100.00;98803.11;105831;1252;74857;-48
2023/07/01 06:58:45;;;;;;;1.30;0.60;;;;;;;22.89;100.00;98799.58;105159;1251;62035;-48
2023/07/01 07:01:13;;;;;;;0.60;0.50;;;;;;;22.94;100.00;98801.76;105091;1257;60585;-49
2023/07/01 07:03:44;;;;;;;0.50;0.50;;;;;;;22.98;100.00;98798.75;105172;1256;76129;-48
2023/07/01 07:06:12;;;;;;;0.50;0.50;;;;;;;23.03;100.00;98798.45;105146;1256;67986;-47
2023/07/01 07:08:40;;;;;;;0.50;0.50;;;;;;;23.07;100.00;98801.70;104893;1255;72671;-49
2023/07/01 07:11:07;;;;;;;1.10;0.50;;;;;;;23.11;100.00;98806.38;105053;1257;61183;-49
2023/07/01 07:13:35;;;;;;;2.40;0.60;;;;;;;23.14;100.00;98805.67;105072;1256;60352;-47
2023/07/01 07:16:02;;;;;;;0.70;0.50;;;;;;;23.18;100.00;98807.63;105097;1254;74702;-49
2023/07/01 07:18:30;;;;;;;1.00;0.40;;;;;;;23.24;100.00;98812.43;105171;1257;67968;-48
2023/07/01 07:20:57;;;;;;;1.00;0.60;;;;;;;23.29;100.00;98812.02;107951;1251;72677;-48
2023/07/01 07:23:25;;;;;;;0.50;0.50;;;;;;;23.33;100.00;98811.33;105118;1251;60924;-47
2023/07/01 07:25:52;;;;;;;0.50;0.50;;;;;;;23.37;100.00;98812.52;105038;1253;60533;-48
2023/07/01 07:28:20;;;;;;;0.60;0.50;;;;;;;23.42;100.00;98815.10;104979;1253;74356;-50
2023/07/01 07:30:48;;;;;;;0.60;0.60;;;;;;;23.46;100.00;98816.95;104875;1251;67540;-49
2023/07/01 07:33:18;;;;;;;1.30;0.50;;;;;;;23.51;100.00;98813.89;104850;1256;72662;-48
2023/07/01 07:35:46;;;;;;;0.80;0.50;;;;;;;23.55;100.00;98811.97;105095;1256;60559;-49
2023/07/01 07:38:14;;;;;;;1.60;0.50;;;;;;;23.59;100.00;98816.54;104756;1253;60909;-50
2023/07/01 07:40:43;;;;;;;1.50;0.70;;;;;;;23.66;100.00;98812.80;105082;1251;75982;-49
2023/07/01 07:43:10;;;;;;;0.50;0.50;;;;;;;23.72;100.00;98813.90;109147;1251;67935;-49
2023/07/01 07:45:38;;;;;;;2.00;0.50;;;;;;;23.79;100.00;98813.11;109017;1253;71631;-49
2023/07/01 07:48:06;;;;;;;2.70;0.50;;;;;;;23.87;100.00;98812.38;105288;1254;60572;-49
2023/07/01 07:50:35;;;;;;;1.50;0.50;;;;;;;23.93;100.00;98815.83;106331;1251;60556;-49
2023/07/01 07:53:03;;;;;;;1.20;0.60;;;;;;;23.98;100.00;98815.57;108003;1254;74196;-49
2023/07/01 07:55:33;;;;;;;0.80;0.50;;;;;;;24.04;100.00;98814.89;104999;1255;66400;-49
2023/07/01 07:58:02;;;;;;;0.40;0.40;;;;;;;24.11;100.00;98815.27;105686;1252;74714;-48
2023/07/01 08:00:29;;;;;;;0.60;0.50;;;;;;;24.21;100.00;98819.48;104864;1251;61018;-48
2023/07/01 08:02:57;;;;;;;0.70;0.40;;;;;;;24.31;100.00;98818.88;105438;1251;61882;-49
2023/07/01 08:05:26;;;;;;;2.10;0.50;;;;;;;24.37;100.00;98819.55;105048;1252;73787;-50
2023/07/01 08:07:54;;;;;;;0.80;0.40;;;;;;;24.41;100.00;98821.14;104907;1257;67058;-50
2023/07/01 08:10:22;;;;;;;1.70;0.50;;;;;;;24.43;100.00;98822.14;105168;1254;73308;-51
2023/07/01 08:12:49;;;;;;;1.70;0.40;;;;;;;24.48;100.00;98823.55;105005;1251;61852;-50
2023/07/01 08:15:17;;;;;;;1.80;0.70;;;;;;;24.57;100.00;98820.44;109084;1251;58790;-51
2023/07/01 08:17:44;;;;;;;0.60;0.40;;;;;;;24.66;100.00;98822.09;105623;1251;74265;-49
2023/07/01 08:20:12;;;;;;;0.50;0.50;;;;;;;24.76;100.00;98819.36;105131;1256;67642;-49
2023/07/01 08:22:40;;;;;;;1.00;0.50;;;;;;;24.88;100.00;98822.68;105382;1251;72656;-50
2023/07/01 08:25:11;;;;;;;1.40;1.10;;;;;;;24.99;100.00;98832.17;105060;1256;60498;-50
2023/07/01 08:27:38;;;;;;;0.50;0.50;;;;;;;25.07;100.00;98828.66;105067;1251;60547;-50
2023/07/01 08:30:07;;;;;;;0.60;0.50;;;;;;;25.13;100.00;98829.17;105032;1251;76155;-52
2023/07/01 08:32:34;;;;;;;0.50;0.50;;;;;;;25.15;100.00;98828.20;105027;1256;67228;-51
2023/07/01 08:35:02;;;;;;;1.30;0.50;;;;;;;25.17;100.00;98828.48;105318;1253;71395;-52
2023/07/01 08:37:31;;;;;;;1.60;0.40;;;;;;;25.24;100.00;98829.09;105018;1257;60497;-50
2023/07/01 08:40:02;;;;;;;0.50;0.50;;;;;;;25.33;100.00;98831.54;105104;1250;60397;-51
2023/07/01 08:42:33;;;;;;;0.70;0.50;;;;;;;25.39;100.00;98834.95;105147;1256;73796;-51
2023/07/01 08:45:02;;;;;;;0.60;0.40;;;;;;;25.44;100.00;98836.32;105076;1250;67441;-50
2023/07/01 08:47:30;;;;;;;2.00;0.40;;;;;;;25.48;100.00;98866.90;105444;1257;72700;-50
2023/07/01 08:49:57;;;;;;;0.50;0.50;;;;;;;25.53;100.00;98870.83;105147;1251;60633;-51
2023/07/01 08:52:27;;;;;;;1.10;0.50;;;;;;;25.55;100.00;98876.92;105307;1251;60556;-49
2023/07/01 08:54:54;;;;;;;0.60;0.40;;;;;;;25.59;100.00;98882.69;104869;1250;72822;-51
2023/07/01 08:57:22;;;;;;;0.40;0.40;;;;;;;25.63;100.00;98885.92;104909;1259;65539;-48
2023/07/01 08:59:49;;;;;;;0.40;0.40;;;;;;;25.64;100.00;98882.92;105014;1256;72749;-49
2023/07/01 09:02:17;;;;;;;0.30;0.30;;;;;;;25.64;100.00;98888.39;105079;1251;60616;-50
2023/07/01 09:04:45;;;;;;;0.40;0.40;;;;;;;25.63;100.00;98877.06;104988;1251;63247;-49
2023/07/01 09:07:13;;;;;;;4.10;0.40;;;;;;;25.67;100.00;98879.66;105350;1252;73934;-49
2023/07/01 09:09:40;;;;;;;0.60;0.40;;;;;;;25.71;100.00;98884.62;105087;1257;66525;-50
2023/07/01 09:12:08;;;;;;;0.80;0.40;;;;;;;25.72;100.00;98882.82;105059;1255;71749;-49
2023/07/01 09:14:58;;;;;;;0.40;0.40;;;;;;;25.75;100.00;98888.20;104946;1257;60715;-49
2023/07/01 09:17:36;;;;;;;0.50;0.40;;;;;;;25.79;100.00;98880.87;105156;1250;60530;-52
2023/07/01 09:20:13;;;;;;;0.30;0.30;;;;;;;25.83;100.00;98886.07;105621;1252;73853;-51
2023/07/01 09:22:43;;;;;;;0.50;0.40;;;;;;;25.83;100.00;98878.86;104860;1256;68179;-49
2023/07/01 09:25:29;;;;;;;0.40;0.40;;;;;;;25.81;100.00;98876.34;104811;1250;73330;-50
2023/07/01 09:27:56;;;;;;;1.30;0.40;;;;;;;25.85;100.00;98874.68;104760;1254;60737;-50
2023/07/01 09:30:28;;;;;;;0.30;0.30;;;;;;;25.88;100.00;98873.78;104869;1251;60502;-50
2023/07/01 09:33:12;;;;;;;1.00;0.30;;;;;;;25.81;100.00;98874.13;104941;1250;72077;-50
2023/07/01 09:35:43;;;;;;;0.40;0.30;;;;;;;25.74;100.00;98869.23;104883;1256;65818;-50
2023/07/01 09:38:10;;;;;;;1.10;0.40;;;;;;;25.71;100.00;98858.50;105368;1252;72642;-49
2023/07/01 09:40:38;;;;;;;0.50;0.40;;;;;;;25.70;100.00;98862.44;104937;1251;60569;-50
2023/07/01 09:43:06;;;;;;;0.40;0.40;;;;;;;25.66;100.00;98861.16;104840;1250;60425;-50
2023/07/01 09:45:33;;;;;;;0.50;0.30;;;;;;;25.62;100.00;98860.20;104994;1251;72624;-50
2023/07/01 09:48:10;;;;;;;0.40;0.30;;;;;;;25.64;100.00;98858.33;105587;1250;65629;-49
2023/07/01 09:50:38;;;;;;;0.40;0.30;;;;;;;25.69;100.00;98857.43;105050;1256;72661;-48
2023/07/01 09:53:24;;;;;;;0.50;0.30;;;;;;;25.76;100.00;98861.90;104858;1250;61071;-48
2023/07/01 09:55:51;;;;;;;0.30;0.30;;;;;;;25.76;100.00;98863.39;105612;1250;60459;-50
2023/07/01 09:58:19;;;;;;;0.30;0.30;;;;;;;25.72;100.00;98853.47;104929;1250;76731;-50
2023/07/01 10:00:46;;;;;;;1.30;0.40;;;;;;;25.72;100.00;98849.88;105012;1251;68080;-50
2023/07/01 10:03:14;;;;;;;0.30;0.30;;;;;;;25.80;100.00;98852.48;104845;1250;73563;-50
2023/07/01 10:05:49;;;;;;;0.40;0.30;;;;;;;25.87;100.00;98851.64;109218;1250;58771;-48
2023/07/01 10:08:16;;;;;;;1.20;0.40;;;;;;;25.95;100.00;98848.81;109199;1250;61973;-49
2023/07/01 10:10:44;;;;;;;0.50;0.40;;;;;;;26.00;100.00;98848.58;109204;1251;73926;-48
2023/07/01 10:13:13;;;;;;;0.90;0.40;;;;;;;26.05;100.00;98849.85;109168;1250;70188;-48
2023/07/01 10:15:40;;;;;;;0.60;0.30;;;;;;;26.08;100.00;98844.40;109224;1251;72659;-48
2023/07/01 10:18:21;;;;;;;3.30;0.30;;;;;;;26.05;100.00;98838.96;109210;1252;60061;-49
2023/07/01 10:20:51;;;;;;;0.90;0.40;;;;;;;25.96;100.00;98834.66;109234;1250;59904;-49
2023/07/01 10:23:21;;;;;;;0.40;0.30;;;;;;;25.91;100.00;98829.84;109220;1250;72003;-49
2023/07/01 10:25:49;;;;;;;0.50;0.40;;;;;;;25.92;100.00;98821.69;109149;1250;66324;-48
2023/07/01 10:28:17;;;;;;;0.50;0.40;;;;;;;25.97;100.00;98822.63;109302;1250;73744;-49
2023/07/01 10:30:44;;;;;;;1.30;0.40;;;;;;;26.02;100.00;98822.56;109161;1251;59999;-49
2023/07/01 10:33:27;;;;;;;1.30;0.40;;;;;;;26.07;100.00;98824.73;109196;1250;60804;-49
2023/07/01 10:36:09;;;;;;;1.50;0.40;;;;;;;26.11;100.00;98821.30;109093;1253;75451;-48
2023/07/01 10:38:37;;;;;;;1.10;0.40;;;;;;;26.14;100.00;98825.09;109212;1250;66303;-48
2023/07/01 10:41:05;;;;;;;0.30;0.20;;;;;;;26.15;100.00;98818.12;109212;1250;73583;-48
2023/07/01 10:43:38;;;;;;;0.90;0.50;;;;;;;26.17;100.00;98816.23;107455;1250;61341;-47
2023/07/01 10:46:10;;;;;;;0.60;0.40;;;;;;;26.19;100.00;98815.63;105743;1253;62285;-47
2023/07/01 10:48:42;;;;;;;0.50;0.40;;;;;;;26.20;100.00;98813.79;105351;1256;73023;-50
2023/07/01 10:51:13;;;;;;;0.40;0.40;;;;;;;26.19;100.00;98812.14;105420;1256;67586;-49
2023/07/01 10:54:03;;;;;;;3.60;0.30;;;;;;;26.20;100.00;98809.25;104933;1256;72379;-48
2023/07/01 10:56:35;;;;;;;0.70;0.50;;;;;;;26.21;100.00;98809.89;105012;1250;60442;-49
2023/07/01 10:59:29;;;;;;;0.30;0.30;;;;;;;26.21;100.00;98805.23;105736;1254;60521;-50
2023/07/01 11:01:59;;;;;;;1.30;0.50;;;;;;;26.20;100.00;98804.67;105424;1250;73768;-51
2023/07/01 11:04:51;;;;;;;0.50;0.40;;;;;;;26.17;100.00;98801.92;105597;1250;66971;-48
2023/07/01 11:07:26;;;;;;;0.40;0.40;;;;;;;26.16;100.00;98800.52;105021;1251;72643;-48
2023/07/01 11:09:54;;;;;;;26.70;2.00;;;;;;;26.19;100.00;98797.75;105683;1253;60517;-50
2023/07/01 11:12:23;;;;;;;0.60;0.40;;;;;;;26.24;100.00;98795.98;105767;1251;60396;-50
2023/07/01 11:14:54;;;;;;;0.50;0.40;;;;;;;26.31;100.00;98797.69;104880;1254;74808;-50
2023/07/01 11:17:22;;;;;;;0.90;0.40;;;;;;;26.39;100.00;98795.05;105273;1254;65911;-49
2023/07/01 11:19:54;;;;;;;0.50;0.40;;;;;;;26.45;100.00;98795.19;105028;1253;72774;-51
2023/07/01 11:22:22;;;;;;;0.40;0.40;;;;;;;26.46;100.00;98793.19;105799;1251;61185;-49
2023/07/01 11:24:50;;;;;;;0.50;0.30;;;;;;;26.46;100.00;98792.73;105030;1256;61806;-49
2023/07/01 11:27:17;;;;;;;0.90;0.40;;;;;;;26.42;100.00;98787.48;105300;1256;73827;-49
2023/07/01 11:29:47;;;;;;;1.00;0.40;;;;;;;26.37;100.00;98786.41;105089;1251;65693;-49
2023/07/01 11:32:15;;;;;;;1.80;0.40;;;;;;;26.35;100.00;98785.55;105481;1252;71671;-49